createdAt,value
2023-02-01T00:02:50.183Z,101419.22
2023-02-01T00:06:53.134Z,101412.31
2023-02-01T00:11:03.800Z,101405.75
2023-02-01T00:15:07.899Z,101406.09
2023-02-01T00:19:16.228Z,101393.31
2023-02-01T00:23:20.162Z,101391.06
2023-02-01T00:27:23.480Z,101381.09
2023-02-01T00:31:29.384Z,101390.69
2023-02-01T00:35:36.495Z,101378.88
2023-02-01T00:39:39.490Z,101373.50
2023-02-01T00:43:43.458Z,101376.38
2023-02-01T00:47:47.391Z,101362.53
2023-02-01T00:51:51.677Z,101366.25
2023-02-01T00:55:54.623Z,101374.31
2023-02-01T00:59:57.875Z,101378.25
2023-02-01T01:04:02.460Z,101363.53
2023-02-01T01:08:07.530Z,101370.59
2023-02-01T01:12:10.964Z,101378.97
2023-02-01T01:16:14.474Z,101390.66
2023-02-01T01:20:18.148Z,101378.66
2023-02-01T01:24:22.397Z,101377.06
2023-02-01T01:28:26.886Z,101369.44
2023-02-01T01:32:29.798Z,101363.66
2023-02-01T01:36:33.123Z,101361.59
2023-02-01T01:40:37.776Z,101359.56
2023-02-01T01:45:00.446Z,101337.19
2023-02-01T01:49:09.263Z,101338.84
2023-02-01T01:53:15.777Z,101332.78
2023-02-01T01:57:25.533Z,101329.09
2023-02-01T02:01:30.389Z,101314.94
2023-02-01T02:05:33.784Z,101307.03
2023-02-01T02:09:38.473Z,101322.38
2023-02-01T02:13:45.165Z,101305.19
2023-02-01T02:17:57.593Z,101302.28
2023-02-01T02:22:21.802Z,101302.47
2023-02-01T02:26:36.874Z,101292.72
2023-02-01T02:31:09.458Z,101292.34
2023-02-01T02:35:23.622Z,101290.66
2023-02-01T02:39:40.423Z,101283.25
2023-02-01T02:44:09.446Z,101287.59
2023-02-01T02:48:20.004Z,101271.44
2023-02-01T02:52:42.906Z,101267.69
2023-02-01T02:57:03.017Z,101268.72
2023-02-01T03:01:24.181Z,101267.50
2023-02-01T03:05:27.804Z,101263.69
2023-02-01T03:09:36.968Z,101251.88
2023-02-01T03:13:47.459Z,101250.41
2023-02-01T03:17:52.751Z,101244.81
2023-02-01T03:22:01.878Z,101238.59
2023-02-01T03:26:09.557Z,101237.19
2023-02-01T03:30:18.939Z,101255.25
2023-02-01T03:34:23.533Z,101240.53
2023-02-01T03:38:32.907Z,101239.06
2023-02-01T03:42:42.470Z,101239.69
2023-02-01T03:46:52.182Z,101241.09
2023-02-01T03:50:59.930Z,101244.19
2023-02-01T03:55:04.395Z,101239.44
2023-02-01T03:59:10.390Z,101239.44
2023-02-01T04:03:13.693Z,101233.88
2023-02-01T04:07:17.929Z,101222.88
2023-02-01T04:11:21.388Z,101218.13
2023-02-01T04:15:27.591Z,101218.75
2023-02-01T04:19:30.750Z,101208.78
2023-02-01T04:23:33.760Z,101209.47
2023-02-01T04:27:37.573Z,101207.78
2023-02-01T04:31:42.876Z,101202.00
2023-02-01T04:35:45.772Z,101211.75
2023-02-01T04:39:48.799Z,101216.31
2023-02-01T04:43:53.373Z,101217.78
2023-02-01T04:47:57.694Z,101223.63
2023-02-01T04:52:01.356Z,101217.25
2023-02-01T04:56:04.545Z,101206.47
2023-02-01T05:00:09.474Z,101202.72
2023-02-01T05:04:13.731Z,101215.44
2023-02-01T05:08:17.152Z,101209.84
2023-02-01T05:12:37.676Z,101199.50
2023-02-01T05:16:40.864Z,101202.84
2023-02-01T05:20:46.087Z,101193.69
2023-02-01T05:24:49.151Z,101191.44
2023-02-01T05:28:52.163Z,101183.78
2023-02-01T05:32:55.753Z,101189.88
2023-02-01T05:37:00.543Z,101190.28
2023-02-01T05:41:03.611Z,101186.19
2023-02-01T05:45:08.524Z,101174.78
2023-02-01T05:49:13.096Z,101187.88
2023-02-01T05:53:17.596Z,101178.16
2023-02-01T05:57:20.411Z,101208.91
2023-02-01T06:01:23.422Z,101203.16
2023-02-01T06:05:26.783Z,101213.34
2023-02-01T06:09:31.814Z,101216.09
2023-02-01T06:13:36.397Z,101222.75
2023-02-01T06:17:39.544Z,101230.47
2023-02-01T06:21:42.327Z,101224.22
2023-02-01T06:25:47.619Z,101216.75
2023-02-01T06:29:50.735Z,101211.97
2023-02-01T06:33:55.688Z,101235.66
2023-02-01T06:37:58.941Z,101231.94
2023-02-01T06:42:03.882Z,101228.84
2023-02-01T06:46:09.245Z,101229.66
2023-02-01T06:50:12.894Z,101238.38
2023-02-01T06:54:15.953Z,101234.22
2023-02-01T06:58:20.329Z,101240.47
2023-02-01T07:02:23.432Z,101240.25
2023-02-01T07:06:26.441Z,101251.28
2023-02-01T07:10:29.837Z,101257.75
2023-02-01T07:14:34.375Z,101252.72
2023-02-01T07:18:37.279Z,101263.53
2023-02-01T07:22:40.220Z,101258.13
2023-02-01T07:26:43.331Z,101267.91
2023-02-01T07:30:51.737Z,101257.91
2023-02-01T07:34:54.746Z,101284.09
2023-02-01T07:38:57.784Z,101261.28
2023-02-01T07:43:00.860Z,101262.72
2023-02-01T07:47:06.309Z,101271.47
2023-02-01T07:51:11.719Z,101275.44
2023-02-01T07:55:14.650Z,101272.75
2023-02-01T07:59:17.954Z,101261.09
2023-02-01T08:03:22.422Z,101275.22
2023-02-01T08:07:25.781Z,101278.38
2023-02-01T08:11:29.602Z,101286.28
2023-02-01T08:15:32.754Z,101276.50
2023-02-01T08:19:37.012Z,101276.09
2023-02-01T08:23:41.836Z,101279.84
2023-02-01T08:27:45.547Z,101285.25
2023-02-01T08:31:48.490Z,101284.00
2023-02-01T08:35:53.127Z,101287.53
2023-02-01T08:39:56.427Z,101293.59
2023-02-01T08:44:00.152Z,101297.97
2023-02-01T08:48:03.444Z,101286.72
2023-02-01T08:52:15.786Z,101299.84
2023-02-01T08:56:20.889Z,101283.88
2023-02-01T09:00:24.447Z,101273.25
2023-02-01T09:04:27.713Z,101267.84
2023-02-01T09:08:32.771Z,101275.78
2023-02-01T09:12:36.824Z,101273.09
2023-02-01T09:16:39.779Z,101262.44
2023-02-01T09:20:42.822Z,101245.84
2023-02-01T09:24:47.732Z,101244.38
2023-02-01T09:28:51.798Z,101243.75
2023-02-01T09:32:54.780Z,101233.78
2023-02-01T09:36:57.843Z,101236.28
2023-02-01T09:41:02.643Z,101234.22
2023-02-01T09:45:24.061Z,101226.75
2023-02-01T09:49:31.291Z,101227.16
2023-02-01T09:53:38.281Z,101234.25
2023-02-01T09:57:53.063Z,101229.25
2023-02-01T10:01:56.319Z,101267.94
2023-02-01T10:06:19.627Z,101249.00
2023-02-01T10:10:30.418Z,101239.66
2023-02-01T10:14:53.971Z,101235.09
2023-02-01T10:19:09.567Z,101202.00
2023-02-01T10:23:34.242Z,101209.06
2023-02-01T10:27:40.670Z,101215.75
2023-02-01T10:31:45.682Z,101207.84
2023-02-01T10:35:51.598Z,101205.97
2023-02-01T10:39:57.670Z,101199.13
2023-02-01T10:44:02.656Z,101209.50
2023-02-01T10:48:07.372Z,101219.06
2023-02-01T10:52:17.327Z,101218.00
2023-02-01T10:56:25.343Z,101202.97
2023-02-01T11:00:28.594Z,101203.38
2023-02-01T11:04:36.535Z,101202.31
2023-02-01T11:08:45.225Z,101191.91
2023-02-01T11:12:55.932Z,101207.91
2023-02-01T11:17:01.632Z,101188.50
2023-02-01T11:21:07.180Z,101193.91
2023-02-01T11:25:12.615Z,101184.53
2023-02-01T11:29:21.230Z,101186.19
2023-02-01T11:33:30.777Z,101184.06
2023-02-01T11:37:38.855Z,101174.06
2023-02-01T11:41:46.523Z,101159.75
2023-02-01T11:45:57.087Z,101166.97
2023-02-01T11:50:01.507Z,101160.34
2023-02-01T11:54:25.568Z,101149.97
2023-02-01T11:58:43.635Z,101135.25
2023-02-01T12:03:17.632Z,101132.13
2023-02-01T12:07:25.215Z,101140.66
2023-02-01T12:11:57.230Z,101150.03
2023-02-01T12:16:12.101Z,101151.69
2023-02-01T12:20:31.072Z,101141.34
2023-02-01T12:24:59.139Z,101134.47
2023-02-01T12:29:22.568Z,101120.81
2023-02-01T12:33:36.347Z,101112.06
2023-02-01T12:37:56.632Z,101106.47
2023-02-01T12:42:05.593Z,101091.72
2023-02-01T12:46:15.290Z,101113.56
2023-02-01T12:50:23.550Z,101109.00
2023-02-01T12:54:33.251Z,101100.06
2023-02-01T12:58:44.028Z,101095.28
2023-02-01T13:02:54.709Z,101094.66
2023-02-01T13:07:04.493Z,101099.03
2023-02-01T13:11:15.989Z,101100.47
2023-02-01T13:15:25.176Z,101092.59
2023-02-01T13:19:34.192Z,101099.22
2023-02-01T13:23:40.109Z,101075.94
2023-02-01T13:27:43.130Z,101079.88
2023-02-01T13:32:04.155Z,101092.38
2023-02-01T13:36:29.145Z,101084.25
2023-02-01T13:40:45.116Z,101102.34
2023-02-01T13:44:51.388Z,101100.69
2023-02-01T13:48:58.308Z,101107.31
2023-02-01T13:53:06.765Z,101107.31
2023-02-01T13:57:37.460Z,101124.38
2023-02-01T14:01:41.452Z,101128.78
2023-02-01T14:06:13.442Z,101124.38
2023-02-01T14:10:51.994Z,101131.06
2023-02-01T14:15:26.252Z,101132.09
2023-02-01T14:19:32.470Z,101152.69
2023-02-01T14:23:42.322Z,101150.00
2023-02-01T14:27:46.780Z,101154.56
2023-02-01T14:31:57.833Z,101139.38
2023-02-01T14:36:09.271Z,101135.84
2023-02-01T14:40:21.428Z,101150.22
2023-02-01T14:44:28.910Z,101138.34
2023-02-01T14:48:47.814Z,101132.09
2023-02-01T14:53:03.802Z,101137.28
2023-02-01T14:57:06.759Z,101156.84
2023-02-01T15:01:23.770Z,101164.56
2023-02-01T15:05:31.831Z,101170.19
2023-02-01T15:09:37.335Z,101166.63
2023-02-01T15:13:40.145Z,101170.78
2023-02-01T15:17:51.087Z,101182.00
2023-02-01T15:21:55.344Z,101178.91
2023-02-01T15:25:58.469Z,101186.19
2023-02-01T15:30:07.789Z,101172.44
2023-02-01T15:34:12.629Z,101192.22
2023-02-01T15:38:31.635Z,101189.94
2023-02-01T15:42:34.496Z,101178.69
2023-02-01T15:46:40.305Z,101194.53
2023-02-01T15:50:44.489Z,101202.84
2023-02-01T15:54:50.537Z,101197.84
2023-02-01T15:58:57.328Z,101197.63
2023-02-01T16:03:01.891Z,101184.72
2023-02-01T16:07:27.163Z,101187.03
2023-02-01T16:11:31.725Z,101203.47
2023-02-01T16:15:34.625Z,101221.78
2023-02-01T16:19:37.463Z,101235.47
2023-02-01T16:23:41.892Z,101243.38
2023-02-01T16:27:44.880Z,101234.03
2023-02-01T16:31:50.664Z,101245.47
2023-02-01T16:35:54.313Z,101245.47
2023-02-01T16:39:58.475Z,101250.66
2023-02-01T16:44:01.291Z,101258.38
2023-02-01T16:48:06.543Z,101252.75
2023-02-01T16:52:16.511Z,101254.19
2023-02-01T16:56:23.075Z,101262.31
2023-02-01T17:00:27.267Z,101263.78
2023-02-01T17:04:30.243Z,101277.72
2023-02-01T17:08:36.391Z,101288.75
2023-02-01T17:12:42.506Z,101294.16
2023-02-01T17:16:47.385Z,101284.19
2023-02-01T17:20:52.124Z,101302.50
2023-02-01T17:24:54.988Z,101303.09
2023-02-01T17:28:59.179Z,101285.00
2023-02-01T17:33:10.194Z,101300.59
2023-02-01T17:37:25.836Z,101299.13
2023-02-01T17:41:28.732Z,101302.63
2023-02-01T17:45:38.271Z,101298.25
2023-02-01T17:49:41.099Z,101308.00
2023-02-01T17:53:44.290Z,101316.50
2023-02-01T17:57:48.055Z,101316.06
2023-02-01T18:01:53.118Z,101329.13
2023-02-01T18:05:57.569Z,101329.56
2023-02-01T18:10:01.980Z,101329.91
2023-02-01T18:14:04.989Z,101324.91
2023-02-01T18:18:09.207Z,101345.06
2023-02-01T18:22:18.554Z,101361.00
2023-02-01T18:26:21.364Z,101345.38
2023-02-01T18:30:26.321Z,101330.34
2023-02-01T18:34:30.503Z,101333.78
2023-02-01T18:38:33.234Z,101364.19
2023-02-01T18:42:36.024Z,101344.66
2023-02-01T18:46:38.828Z,101330.84
2023-02-01T18:50:44.956Z,101342.28
2023-02-01T18:54:59.436Z,101344.13
2023-02-01T18:59:02.643Z,101333.53
2023-02-01T19:03:05.407Z,101335.41
2023-02-01T19:07:10.149Z,101340.56
2023-02-01T19:11:13.030Z,101349.06
2023-02-01T19:15:16.600Z,101350.09
2023-02-01T19:19:19.450Z,101353.00
2023-02-01T19:23:23.622Z,101355.22
2023-02-01T19:27:26.750Z,101359.53
2023-02-01T19:31:29.651Z,101363.84
2023-02-01T19:35:32.662Z,101362.09
2023-02-01T19:39:37.686Z,101356.44
2023-02-01T19:43:40.626Z,101346.22
2023-02-01T19:47:43.622Z,101352.19
2023-02-01T19:51:48.493Z,101351.75
2023-02-01T19:55:52.693Z,101343.22
2023-02-01T19:59:55.453Z,101340.91
2023-02-01T20:04:01.636Z,101342.50
2023-02-01T20:08:04.592Z,101339.53
2023-02-01T20:12:10.669Z,101341.41
2023-02-01T20:16:13.453Z,101346.16
2023-02-01T20:20:16.497Z,101342.81
2023-02-01T20:24:19.460Z,101350.31
2023-02-01T20:28:24.541Z,101365.75
2023-02-01T20:32:27.378Z,101366.44
2023-02-01T20:36:31.916Z,101368.38
2023-02-01T20:40:34.664Z,101369.69
2023-02-01T20:44:38.794Z,101374.69
2023-02-01T20:48:44.665Z,101363.75
2023-02-01T20:52:47.467Z,101369.16
2023-02-01T20:56:50.360Z,101371.78
2023-02-01T21:00:54.774Z,101373.22
2023-02-01T21:04:57.555Z,101374.34
2023-02-01T21:09:00.287Z,101367.69
2023-02-01T21:13:05.343Z,101372.91
2023-02-01T21:17:10.008Z,101368.53
2023-02-01T21:21:14.768Z,101378.50
2023-02-01T21:25:18.083Z,101376.44
2023-02-01T21:29:20.969Z,101380.16
2023-02-01T21:33:26.694Z,101393.66
2023-02-01T21:37:29.409Z,101401.38
2023-02-01T21:41:51.448Z,101394.53
2023-02-01T21:45:54.248Z,101408.31
2023-02-01T21:49:58.377Z,101411.47
2023-02-01T21:54:01.908Z,101427.47
2023-02-01T21:58:12.429Z,101428.66
2023-02-01T22:02:16.614Z,101426.16
2023-02-01T22:06:28.285Z,101434.06
2023-02-01T22:10:31.009Z,101437.69
2023-02-01T22:14:33.818Z,101449.56
2023-02-01T22:18:36.585Z,101453.56
2023-02-01T22:22:41.069Z,101459.78
2023-02-01T22:26:44.724Z,101465.00
2023-02-01T22:30:47.696Z,101471.22
2023-02-01T22:34:50.569Z,101473.56
2023-02-01T22:38:54.778Z,101492.06
2023-02-01T22:42:57.514Z,101486.47
2023-02-01T22:47:00.414Z,101484.63
2023-02-01T22:51:03.792Z,101486.66
2023-02-01T22:55:08.429Z,101491.22
2023-02-01T22:59:13.461Z,101502.22
2023-02-01T23:03:16.248Z,101511.16
2023-02-01T23:07:19.103Z,101503.28
2023-02-01T23:11:23.759Z,101509.50
2023-02-01T23:15:26.722Z,101511.56
2023-02-01T23:19:29.493Z,101506.16
2023-02-01T23:23:32.313Z,101513.88
2023-02-01T23:27:36.435Z,101500.56
2023-02-01T23:31:39.263Z,101510.72
2023-02-01T23:35:42.032Z,101517.16
2023-02-01T23:39:44.876Z,101517.75
2023-02-01T23:44:01.175Z,101512.72
2023-02-01T23:48:04.058Z,101516.25
2023-02-01T23:52:07.332Z,101511.44
2023-02-01T23:56:17.886Z,101513.31
